createdAt,value
2019-03-31T00:02:18.780Z,11.50
2019-03-31T00:07:07.570Z,11.40
2019-03-31T00:11:59.437Z,11.30
2019-03-31T00:16:53.367Z,11.30
2019-03-31T00:21:44.927Z,11.20
2019-03-31T00:26:36.959Z,11.10
2019-03-31T00:31:31.962Z,11.00
2019-03-31T00:36:23.104Z,10.90
2019-03-31T00:41:16.041Z,10.90
2019-03-31T00:46:07.662Z,10.80
2019-03-31T00:50:59.454Z,10.70
2019-03-31T00:55:51.389Z,10.70
2019-03-31T01:00:43.443Z,10.60
2019-03-31T01:05:36.315Z,10.70
2019-03-31T01:10:30.572Z,10.80
2019-03-31T01:15:22.153Z,10.90
2019-03-31T01:20:14.526Z,10.90
2019-03-31T01:25:04.601Z,11.00
2019-03-31T01:29:56.859Z,11.10
2019-03-31T01:34:50.790Z,11.20
2019-03-31T01:45:35.500Z,11.20
2019-03-31T01:50:27.974Z,11.30
2019-03-31T01:55:26.441Z,11.30
2019-03-31T02:00:16.343Z,11.30
2019-03-31T02:05:08.675Z,11.30
2019-03-31T02:09:58.448Z,11.30
2019-03-31T02:14:48.605Z,11.20
2019-03-31T02:19:39.415Z,11.20
2019-03-31T02:24:29.334Z,11.20
2019-03-31T02:29:20.647Z,11.10
2019-03-31T02:34:10.388Z,11.00
2019-03-31T02:39:01.182Z,10.90
2019-03-31T02:43:50.524Z,10.90
2019-03-31T02:48:40.588Z,10.80
2019-03-31T02:53:30.718Z,10.80
2019-03-31T02:58:20.644Z,10.70
2019-03-31T03:03:10.895Z,10.70
2019-03-31T03:08:00.945Z,10.60
2019-03-31T03:12:50.759Z,10.50
2019-03-31T03:17:42.883Z,10.50
2019-03-31T03:22:32.760Z,10.40
2019-03-31T03:27:22.876Z,10.30
2019-03-31T03:32:13.062Z,10.30
2019-03-31T03:37:01.672Z,10.20
2019-03-31T03:41:51.404Z,10.20
2019-03-31T03:46:41.257Z,10.10
2019-03-31T03:51:30.505Z,10.10
2019-03-31T03:56:20.432Z,10.00
2019-03-31T04:01:12.572Z,10.00
2019-03-31T04:06:03.399Z,9.90
2019-03-31T04:10:55.479Z,9.90
2019-03-31T04:15:47.543Z,9.90
2019-03-31T04:20:40.478Z,9.90
2019-03-31T04:25:32.455Z,9.90
2019-03-31T04:30:24.543Z,9.80
2019-03-31T04:35:16.378Z,9.80
2019-03-31T04:40:08.167Z,9.80
2019-03-31T04:44:59.452Z,9.80
2019-03-31T04:49:49.719Z,9.70
2019-03-31T04:54:40.329Z,9.70
2019-03-31T04:59:30.218Z,9.70
2019-03-31T05:04:20.388Z,9.60
2019-03-31T05:09:11.682Z,9.60
2019-03-31T05:14:03.651Z,9.60
2019-03-31T05:18:53.364Z,9.60
2019-03-31T05:23:42.467Z,9.60
2019-03-31T05:28:34.690Z,9.60
2019-03-31T05:33:24.497Z,9.60
2019-03-31T05:38:16.477Z,9.60
2019-03-31T05:43:10.490Z,9.70
2019-03-31T05:48:00.636Z,9.70
2019-03-31T05:52:50.695Z,9.70
2019-03-31T05:57:40.707Z,9.80
2019-03-31T06:02:31.344Z,9.90
2019-03-31T06:07:25.714Z,10.00
2019-03-31T06:12:15.222Z,10.00
2019-03-31T06:17:04.876Z,10.10
2019-03-31T06:21:54.211Z,10.10
2019-03-31T06:26:44.097Z,10.10
2019-03-31T06:31:34.341Z,10.10
2019-03-31T06:36:23.880Z,10.10
2019-03-31T06:41:12.137Z,10.10
2019-03-31T06:46:02.312Z,10.00
2019-03-31T06:50:52.311Z,9.90
2019-03-31T06:55:44.217Z,9.70
2019-03-31T07:00:36.267Z,9.50
2019-03-31T07:05:28.210Z,9.30
2019-03-31T07:10:20.330Z,9.20
2019-03-31T07:15:11.610Z,9.10
2019-03-31T07:20:03.857Z,9.00
2019-03-31T07:24:55.870Z,8.90
2019-03-31T07:29:47.323Z,8.80
2019-03-31T07:34:38.799Z,8.70
2019-03-31T07:39:30.289Z,8.70
2019-03-31T07:44:22.468Z,8.60
2019-03-31T07:49:14.248Z,8.60
2019-03-31T07:54:05.208Z,8.60
2019-03-31T07:58:56.892Z,8.60
2019-03-31T08:03:46.310Z,8.60
2019-03-31T08:08:37.542Z,8.50
2019-03-31T08:13:27.256Z,8.50
2019-03-31T08:18:16.909Z,8.40
2019-03-31T08:23:06.161Z,8.40
2019-03-31T08:27:56.025Z,8.40
2019-03-31T08:32:46.438Z,8.40
2019-03-31T08:37:37.038Z,8.40
2019-03-31T08:42:28.162Z,8.40
2019-03-31T08:47:17.643Z,8.40
2019-03-31T08:52:07.936Z,8.40
2019-03-31T08:56:58.368Z,8.40
2019-03-31T09:01:49.767Z,8.40
2019-03-31T09:06:42.658Z,8.40
2019-03-31T09:11:33.590Z,8.40
2019-03-31T09:16:24.775Z,8.60
2019-03-31T09:21:15.933Z,8.60
2019-03-31T09:26:07.072Z,8.70
2019-03-31T09:30:57.696Z,8.70
2019-03-31T09:35:48.340Z,8.80
2019-03-31T09:40:39.118Z,9.00
2019-03-31T09:45:30.202Z,9.10
2019-03-31T09:50:20.941Z,9.30
2019-03-31T09:55:11.203Z,9.50
2019-03-31T10:00:03.171Z,9.70
2019-03-31T10:04:55.007Z,9.90
2019-03-31T10:09:45.472Z,10.10
2019-03-31T10:14:37.056Z,10.20
2019-03-31T10:19:28.954Z,10.30
2019-03-31T10:24:19.538Z,10.40
2019-03-31T10:29:09.884Z,10.60
2019-03-31T10:34:00.574Z,10.90
2019-03-31T10:38:52.645Z,11.20
2019-03-31T10:43:43.679Z,11.40
2019-03-31T10:48:34.189Z,11.50
2019-03-31T10:53:25.193Z,11.50
2019-03-31T10:58:16.491Z,11.50
2019-03-31T11:03:08.636Z,12.30
2019-03-31T11:08:00.638Z,13.20
2019-03-31T11:12:52.767Z,14.20
2019-03-31T11:17:43.921Z,14.90
2019-03-31T11:22:35.690Z,14.70
2019-03-31T11:27:27.240Z,14.90
2019-03-31T11:32:18.730Z,15.20
2019-03-31T11:37:14.818Z,14.80
2019-03-31T11:42:04.963Z,14.80
2019-03-31T11:46:58.302Z,14.90
2019-03-31T11:51:48.163Z,14.80
2019-03-31T11:56:39.680Z,15.00
2019-03-31T12:01:31.252Z,15.10
2019-03-31T12:06:22.771Z,15.30
2019-03-31T12:11:13.140Z,15.60
2019-03-31T12:16:03.940Z,15.80
2019-03-31T12:20:54.169Z,15.90
2019-03-31T12:25:44.847Z,16.00
2019-03-31T12:30:35.457Z,16.30
2019-03-31T12:35:25.062Z,16.10
2019-03-31T12:40:16.483Z,16.00
2019-03-31T12:45:06.859Z,16.10
2019-03-31T12:49:58.393Z,16.30
2019-03-31T12:54:51.526Z,16.40
2019-03-31T12:59:44.353Z,16.50
2019-03-31T13:04:34.130Z,16.50
2019-03-31T13:09:25.378Z,16.70
2019-03-31T13:14:17.069Z,16.80
2019-03-31T13:19:08.232Z,16.60
2019-03-31T13:23:57.971Z,16.40
2019-03-31T13:28:48.759Z,16.30
2019-03-31T13:33:40.178Z,16.40
2019-03-31T13:38:30.981Z,16.30
2019-03-31T13:43:22.600Z,16.80
2019-03-31T13:48:13.987Z,16.80
2019-03-31T13:53:05.372Z,16.80
2019-03-31T13:58:02.598Z,16.40
2019-03-31T14:02:57.122Z,16.20
2019-03-31T14:07:49.172Z,16.00
2019-03-31T14:12:41.237Z,16.10
2019-03-31T14:17:31.482Z,16.30
2019-03-31T14:22:21.808Z,16.40
2019-03-31T14:27:12.072Z,16.40
2019-03-31T14:32:03.295Z,16.00
2019-03-31T14:36:54.379Z,15.90
2019-03-31T14:41:44.940Z,15.70
2019-03-31T14:46:34.780Z,15.60
2019-03-31T14:51:25.407Z,15.50
2019-03-31T14:56:17.499Z,15.50
2019-03-31T15:01:08.339Z,15.60
2019-03-31T15:05:58.820Z,15.50
2019-03-31T15:10:49.051Z,15.00
2019-03-31T15:15:39.438Z,14.50
